地図

経路データ

SID SEASON NUMBER BASIN SUBBASIN NAME ISO_TIME NATURE LAT LON WMO_WIND WMO_PRES WMO_AGENCY TRACK_TYPE DIST2LAND LANDFALL IFLAG USA_AGENCY USA_ATCF_ID USA_LAT USA_LON USA_RECORD USA_STATUS USA_WIND USA_PRES USA_SSHS USA_R34_NE USA_R34_SE USA_R34_SW USA_R34_NW USA_R50_NE USA_R50_SE USA_R50_SW USA_R50_NW USA_R64_NE USA_R64_SE USA_R64_SW USA_R64_NW USA_POCI USA_ROCI USA_RMW USA_EYE TOKYO_LAT TOKYO_LON TOKYO_GRADE TOKYO_WIND TOKYO_PRES TOKYO_R50_DIR TOKYO_R50_LONG TOKYO_R50_SHORT TOKYO_R30_DIR TOKYO_R30_LONG TOKYO_R30_SHORT TOKYO_LAND CMA_LAT CMA_LON CMA_CAT CMA_WIND CMA_PRES HKO_LAT HKO_LON HKO_CAT HKO_WIND HKO_PRES NEWDELHI_LAT NEWDELHI_LON NEWDELHI_GRADE NEWDELHI_WIND NEWDELHI_PRES NEWDELHI_CI NEWDELHI_DP NEWDELHI_POCI REUNION_LAT REUNION_LON REUNION_TYPE REUNION_WIND REUNION_PRES REUNION_TNUM REUNION_CI REUNION_RMW REUNION_R34_NE REUNION_R34_SE REUNION_R34_SW REUNION_R34_NW REUNION_R50_NE REUNION_R50_SE REUNION_R50_SW REUNION_R50_NW REUNION_R64_NE REUNION_R64_SE REUNION_R64_SW REUNION_R64_NW BOM_LAT BOM_LON BOM_TYPE BOM_WIND BOM_PRES BOM_TNUM BOM_CI BOM_RMW BOM_R34_NE BOM_R34_SE BOM_R34_SW BOM_R34_NW BOM_R50_NE BOM_R50_SE BOM_R50_SW BOM_R50_NW BOM_R64_NE BOM_R64_SE BOM_R64_SW BOM_R64_NW BOM_ROCI BOM_POCI BOM_EYE BOM_POS_METHOD BOM_PRES_METHOD NADI_LAT NADI_LON NADI_CAT NADI_WIND NADI_PRES WELLINGTON_LAT WELLINGTON_LON WELLINGTON_WIND WELLINGTON_PRES DS824_LAT DS824_LON DS824_STAGE DS824_WIND DS824_PRES TD9636_LAT TD9636_LON TD9636_STAGE TD9636_WIND TD9636_PRES TD9635_LAT TD9635_LON TD9635_WIND TD9635_PRES TD9635_ROCI NEUMANN_LAT NEUMANN_LON NEUMANN_CLASS NEUMANN_WIND NEUMANN_PRES MLC_LAT MLC_LON MLC_CLASS MLC_WIND MLC_PRES USA_GUST BOM_GUST BOM_GUST_PER REUNION_GUST REUNION_GUST_PER USA_SEAHGT USA_SEARAD_NE USA_SEARAD_SE USA_SEARAD_SW USA_SEARAD_NW STORM_SPEED STORM_DIR
1945228N17161 1945 45 WP MM GRACE 1945-08-15 12:00:00 TS 17.0000 161.000 main 2469 2464 O________OOO__ jtwc_wp WP121945 17.0000 161.000 25 -1 17.0000 161.000 TC 25 17.0000 161.000 1 25 17.0000 161.000 25 1002 180 10 300
1945228N17161 1945 45 WP MM GRACE 1945-08-15 15:00:00 TS 17.2485 160.549 main 2465 2465 P________PPP__ WP121945 17.2477 160.548 25 -1 17.2477 160.548 TC 25 17.2509 160.554 1 25 17.2477 160.548 25 1002 180 10 300
1945228N17161 1945 45 WP MM GRACE 1945-08-15 18:00:00 TS 17.5002 160.104 main 2477 2473 O________OPO__ jtwc_wp WP121945 17.5000 160.100 25 -1 17.5000 160.100 TC 25 17.5010 160.116 1 25 17.5000 160.100 25 1002 180 10 301
1945228N17161 1945 45 WP MM GRACE 1945-08-15 21:00:00 TS 17.7558 159.676 main 2490 2482 P________PPP__ WP121945 17.7575 159.670 25 -1 17.7575 159.670 TC 25 17.7506 159.695 1 25 17.7575 159.670 25 1002 210 9 303
1945228N17161 1945 45 WP MM GRACE 1945-08-16 00:00:00 TS 18.0000 159.300 main 2494 2490 O________OOO__ jtwc_wp WP121945 18.0000 159.300 25 -1 18.0000 159.300 TC 25 18.0000 159.300 1 25 18.0000 159.300 25 1002 240 8 306
1945228N17161 1945 45 WP MM GRACE 1945-08-16 03:00:00 TS 18.2066 159.022 main 2503 2503 P________PPP__ WP121945 18.1923 159.050 25 -1 18.1923 159.050 TC 25 18.2496 158.938 1 25 18.1923 159.050 25 1002 240 7 309
1945228N17161 1945 45 WP MM GRACE 1945-08-16 06:00:00 TS 18.4249 158.751 main 2516 2513 O________OPO__ jtwc_wp WP121945 18.4000 158.800 25 -1 18.4000 158.800 TC 25 18.4996 158.605 1 25 18.4000 158.800 25 1003 240 8 309
1945228N17161 1945 45 WP MM GRACE 1945-08-16 09:00:00 TS 18.7069 158.374 main 2533 2502 P________PPP__ WP121945 18.6927 158.400 25 -1 18.6927 158.400 TC 25 18.7497 158.294 1 25 18.6927 158.400 25 1003 240 9 309
1945228N17161 1945 45 WP MM GRACE 1945-08-16 12:00:00 TS 19.0000 158.000 main 2502 2464 O________OOO__ jtwc_wp WP121945 19.0000 158.000 25 -1 19.0000 158.000 TC 25 19.0000 158.000 1 25 19.0000 158.000 25 1003 240 8 312
1945228N17161 1945 45 WP MM GRACE 1945-08-16 15:00:00 TS 19.2554 157.727 main 2456 2425 P________PPP__ WP121945 19.2573 157.735 25 -1 19.2573 157.735 TC 25 19.2498 157.702 1 25 19.2573 157.735 25 1003 240 7 315
1945228N17161 1945 45 WP MM GRACE 1945-08-16 18:00:00 TS 19.5000 157.480 main 2425 2388 O________OPO__ jtwc_wp WP121945 19.5000 157.500 25 -1 19.5000 157.500 TC 25 19.4998 157.420 1 25 19.5000 157.500 25 1003 240 7 314
1945228N17161 1945 45 WP MM GRACE 1945-08-16 21:00:00 TS 19.7556 157.182 main 2379 2342 P________PPP__ WP121945 19.7575 157.193 25 -1 19.7575 157.193 TC 25 19.7499 157.152 1 25 19.7575 157.193 25 1003 240 7 312
1945228N17161 1945 45 WP MM GRACE 1945-08-17 00:00:00 TS 20.0000 156.900 main 2342 2311 O________OOO__ jtwc_wp WP121945 20.0000 156.900 25 -1 20.0000 156.900 TC 25 20.0000 156.900 1 25 20.0000 156.900 25 1003 240 7 314
1945228N17161 1945 45 WP MM GRACE 1945-08-17 03:00:00 TS 20.2097 156.690 main 2311 2281 P________PPP__ WP121945 20.1924 156.692 25 -1 20.1924 156.692 TC 25 20.2617 156.685 1 25 20.1924 156.692 25 1002 240 6 319
1945228N17161 1945 45 WP MM GRACE 1945-08-17 06:00:00 TS 20.4305 156.495 main 2281 2242 O________OPO__ jtwc_wp WP121945 20.4000 156.500 25 -1 20.4000 156.500 TC 25 20.5218 156.479 1 25 20.4000 156.500 25 1002 240 6 323
1945228N17161 1945 45 WP MM GRACE 1945-08-17 09:00:00 TS 20.7233 156.275 main 2242 2196 P________PPP__ WP121945 20.7074 156.280 25 -1 20.7074 156.280 TC 25 20.7710 156.260 1 25 20.7074 156.280 25 1002 240 7 321
1945228N17161 1945 45 WP MM GRACE 1945-08-17 12:00:00 TS 21.0000 156.000 main 2196 2159 O________OOO__ jtwc_wp WP121945 21.0000 156.000 25 -1 21.0000 156.000 TC 25 21.0000 156.000 1 25 21.0000 156.000 25 1002 240 8 307
1945228N17161 1945 45 WP MM GRACE 1945-08-17 15:00:00 TS 21.1720 155.628 main 2152 2117 P________PPP__ WP121945 21.1651 155.615 25 -1 21.1651 155.615 TC 25 21.1926 155.668 1 25 21.1651 155.615 25 1001 270 8 294
1945228N17161 1945 45 WP MM GRACE 1945-08-17 18:00:00 TS 21.3163 155.224 main 2117 2080 O________OPO__ jtwc_wp WP121945 21.3000 155.200 25 -1 21.3000 155.200 TC 25 21.3652 155.295 1 25 21.3000 155.200 25 1001 300 8 295
1945228N17161 1945 45 WP MM GRACE 1945-08-17 21:00:00 TS 21.5074 154.862 main 2080 2036 P________PPP__ WP121945 21.4998 154.850 25 -1 21.4998 154.850 TC 25 21.5301 154.899 1 25 21.4998 154.850 25 1001 330 8 300
1945228N17161 1945 45 WP MM GRACE 1945-08-18 00:00:00 TS 21.7000 154.500 main 2036 2002 O________OOO__ jtwc_wp WP121945 21.7000 154.500 25 -1 21.7000 154.500 TC 25 21.7000 154.500 1 25 21.7000 154.500 25 1001 360 8 296
1945228N17161 1945 45 WP MM GRACE 1945-08-18 03:00:00 TS 21.8530 154.107 main 1993 1958 P________PPP__ WP121945 21.8425 154.100 25 -1 21.8425 154.100 TC 25 21.8844 154.129 1 26 21.8425 154.100 25 1000 390 8 294
1945228N17161 1945 45 WP MM GRACE 1945-08-18 06:00:00 TS 22.0193 153.714 main 1958 1922 O________OPO__ jtwc_wp WP121945 22.0000 153.700 25 -1 22.0000 153.700 TC 25 22.0771 153.757 1 27 22.0000 153.700 25 1000 420 8 300
1945228N17161 1945 45 WP MM GRACE 1945-08-18 09:00:00 TS 22.2464 153.363 main 1922 1870 P________PPP__ WP121945 22.2348 153.357 27 -1 22.2348 153.357 TC 27 22.2812 153.382 1 28 22.2348 153.357 27 1000 420 8 306
1945228N17161 1945 45 WP MM GRACE 1945-08-18 12:00:00 TS 22.5000 153.000 main 1870 1827 O________OOO__ jtwc_wp WP121945 22.5000 153.000 30 -1 22.5000 153.000 TC 30 22.5000 153.000 1 30 22.5000 153.000 30 1000 420 9 304
1945228N17161 1945 45 WP MM GRACE 1945-08-18 15:00:00 TS 22.7465 152.557 main 1827 1769 P________PPP__ WP121945 22.7501 152.550 30 -1 22.7501 152.550 TC 30 22.7358 152.579 1 30 22.7501 152.550 30 999 360 10 301
1945228N17161 1945 45 WP MM GRACE 1945-08-18 18:00:00 TS 22.9963 152.114 main 1769 1733 O________OPO__ jtwc_wp WP121945 23.0000 152.100 30 -1 23.0000 152.100 TC 30 22.9854 152.155 1 30 23.0000 152.100 30 999 300 9 304
1945228N17161 1945 45 WP MM GRACE 1945-08-18 21:00:00 TS 23.2536 151.734 main 1718 1682 P________PPP__ WP121945 23.2574 151.727 30 -1 23.2574 151.727 TC 30 23.2422 151.754 1 30 23.2574 151.727 30 998 240 8 308
1945228N17161 1945 45 WP MM GRACE 1945-08-19 00:00:00 TS 23.5000 151.400 main 1682 1646 O________OOO__ jtwc_wp WP121945 23.5000 151.400 30 -1 23.5000 151.400 TC 30 23.5000 151.400 1 30 23.5000 151.400 30 998 180 7 307
1945228N17161 1945 45 WP MM GRACE 1945-08-19 03:00:00 TS 23.6996 151.089 main 1646 1610 P________PPP__ WP121945 23.6925 151.070 32 -1 23.6925 151.070 TC 32 23.7207 151.148 1 31 23.6925 151.070 32 998 180 7 309
1945228N17161 1945 45 WP MM GRACE 1945-08-19 06:00:00 TS 23.9116 150.835 main 1610 1577 O________OPO__ jtwc_wp WP121945 23.9000 150.800 35 0 23.9000 150.800 TC 35 23.9463 150.940 1 32 23.9000 150.800 35 998 180 6 323
1945228N17161 1945 45 WP MM GRACE 1945-08-19 09:00:00 TS 24.1769 150.694 main 1577 1538 P________PPP__ WP121945 24.1696 150.679 35 0 24.1696 150.679 TC 35 24.1988 150.738 1 33 24.1696 150.679 35 997 180 7 333
1945228N17161 1945 45 WP MM GRACE 1945-08-19 12:00:00 TS 24.5000 150.500 main 1538 1478 O________OOO__ jtwc_wp WP121945 24.5000 150.500 35 0 24.5000 150.500 TC 35 24.5000 150.500 2 35 24.5000 150.500 35 996 180 9 320
1945228N17161 1945 45 WP MM GRACE 1945-08-19 15:00:00 TS 24.8763 150.049 main 1472 1412 P________PPP__ WP121945 24.8781 150.016 37 0 24.8781 150.016 TC 37 24.8711 150.149 2 36 24.8781 150.016 37 995 180 12 313
1945228N17161 1945 45 WP MM GRACE 1945-08-19 18:00:00 TS 25.2977 149.565 main 1412 1358 O________OPO__ jtwc_wp WP121945 25.3000 149.500 40 0 25.3000 149.500 TC 40 25.2908 149.759 2 37 25.3000 149.500 40 995 180 11 320
1945228N17161 1945 45 WP MM GRACE 1945-08-19 21:00:00 TS 25.7416 149.256 main 1358 1295 P________PPP__ WP121945 25.7422 149.219 40 0 25.7422 149.219 TC 40 25.7399 149.364 2 38 25.7422 149.219 40 995 180 10 331
1945228N17161 1945 45 WP MM GRACE 1945-08-20 00:00:00 TS 26.2000 149.000 main 1295 1242 O________OOO__ jtwc_wp WP121945 26.2000 149.000 40 0 26.2000 149.000 TC 40 26.2000 149.000 2 40 26.2000 149.000 40 995 180 10 332
1945228N17161 1945 45 WP MM GRACE 1945-08-20 03:00:00 TS 26.6561 148.706 main 1233 1179 P________PPP__ WP121945 26.6501 148.693 40 0 26.6501 148.693 TC 40 26.6743 148.745 2 40 26.6501 148.693 40 994 180 10 331
1945228N17161 1945 45 WP MM GRACE 1945-08-20 06:00:00 TS 27.1128 148.430 main 1179 1130 O________OPO__ jtwc_wp WP121945 27.1000 148.400 40 0 27.1000 148.400 TC 40 27.1510 148.521 2 40 27.1000 148.400 40 993 180 10 336
1945228N17161 1945 45 WP MM GRACE 1945-08-20 09:00:00 TS 27.5909 148.244 main 1123 1076 P________PPP__ WP121945 27.5871 148.230 40 0 27.5871 148.230 TC 40 27.6023 148.286 2 40 27.5871 148.230 40 991 180 10 337
1945228N17161 1945 45 WP MM GRACE 1945-08-20 12:00:00 TS 28.0000 148.000 main 1076 1034 O________OOO__ jtwc_wp WP121945 28.0000 148.000 40 0 28.0000 148.000 TC 40 28.0000 148.000 2 40 28.0000 148.000 40 990 180 9 317
1945228N17161 1945 45 WP MM GRACE 1945-08-20 15:00:00 TS 28.2441 147.548 main 1028 986 P________PPP__ WP121945 28.2229 147.530 45 0 28.2229 147.530 TC 45 28.3079 147.603 2 45 28.2229 147.530 45 988 180 10 297
1945228N17161 1945 45 WP MM GRACE 1945-08-20 18:00:00 TS 28.4401 147.038 main 980 930 O________OPO__ jtwc_wp WP121945 28.4000 147.000 50 0 28.4000 147.000 TC 50 28.5605 147.152 2 50 28.4000 147.000 50 986 180 9 300
1945228N17161 1945 45 WP MM GRACE 1945-08-20 21:00:00 TS 28.7091 146.618 main 930 880 P________PPP__ WP121945 28.6846 146.600 55 0 28.6846 146.600 TC 55 28.7828 146.675 2 55 28.6846 146.600 55 985 180 9 307
1945228N17161 1945 45 WP MM GRACE 1945-08-21 00:00:00 TS 29.0000 146.200 main 880 824 O________OOO__ jtwc_wp WP121945 29.0000 146.200 60 0 29.0000 146.200 TC 60 29.0000 146.200 2 60 29.0000 146.200 60 985 180 10 306
1945228N17161 1945 45 WP MM GRACE 1945-08-21 03:00:00 TS 29.2937 145.709 main 824 774 P________PPP__ WP121945 29.3152 145.693 55 0 29.3152 145.693 TC 55 29.2293 145.759 2 55 29.3152 145.693 55 987 210 10 304
1945228N17161 1945 45 WP MM GRACE 1945-08-21 06:00:00 TS 29.5655 145.231 main 769 734 O________OPO__ jtwc_wp WP121945 29.6000 145.200 50 0 29.6000 145.200 TC 50 29.4621 145.326 2 50 29.6000 145.200 50 990 240 9 303
1945228N17161 1945 45 WP MM GRACE 1945-08-21 09:00:00 TS 29.7726 144.846 main 729 695 P________PPP__ WP121945 29.7922 144.827 45 0 29.7922 144.827 TC 45 29.7138 144.905 2 45 29.7922 144.827 45 991 210 8 304
1945228N17161 1945 45 WP MM GRACE 1945-08-21 12:00:00 TS 30.0000 144.500 main 695 651 O________OOO__ jtwc_wp WP121945 30.0000 144.500 40 0 30.0000 144.500 TC 40 30.0000 144.500 2 40 30.0000 144.500 40 993 180 8 312
1945228N17161 1945 45 WP MM GRACE 1945-08-21 15:00:00 TS 30.3245 144.146 main 645 592 P________PPP__ WP121945 30.3199 144.157 40 0 30.3199 144.157 TC 40 30.3385 144.110 2 40 30.3199 144.157 40 994 180 9 319
1945228N17161 1945 45 WP MM GRACE 1945-08-21 18:00:00 TS 30.7030 143.784 main 592 528 O________OPO__ jtwc_wp WP121945 30.7000 143.800 40 0 30.7000 143.800 TC 40 30.7118 143.734 2 40 30.7000 143.800 40 995 180 11 316
1945228N17161 1945 45 WP MM GRACE 1945-08-21 21:00:00 TS 31.0839 143.291 main 528 470 P________PPP__ WP121945 31.0924 143.407 40 0 31.0924 143.407 TC 40 31.1042 143.366 2 40 31.0924 143.407 40 995 210 11 317
1945228N17161 1945 45 WP MM GRACE 1945-08-22 00:00:00 TS 31.5239 142.883 main 470 403 O________OOO__ jtwc_wp WP121945 31.5000 143.000 40 0 31.5000 143.000 TC 40 31.5000 143.000 2 40 31.5000 143.000 40 995 240 11 324
1945228N17161 1945 45 WP MM GRACE 1945-08-22 03:00:00 TS 31.9922 142.523 main 403 341 P________PPP__ WP121945 31.9074 142.592 40 0 31.9074 142.592 TC 40 31.8865 142.631 2 40 31.9074 142.592 40 995 210 12 329
1945228N17161 1945 45 WP MM GRACE 1945-08-22 06:00:00 TS 32.5102 142.177 main 341 280 O________OPO__ jtwc_wp WP121945 32.3000 142.200 40 0 32.3000 142.200 TC 40 32.2635 142.257 2 40 32.3000 142.200 40 995 180 12 331
1945228N17161 1945 45 WP MM GRACE 1945-08-22 09:00:00 TS 33.0357 141.834 main 274 199 P________PPP__ WP121945 32.6601 141.840 40 0 32.6601 141.840 TC 40 32.6337 141.880 2 40 32.6601 141.840 40 995 180 14 330
1945228N17161 1945 45 WP MM GRACE 1945-08-22 12:00:00 TS 33.6764 141.371 main 190 45 O________OOO__ jtwc_wp WP121945 33.0000 141.500 40 0 33.0000 141.500 TC 40 33.0000 141.500 2 40 33.0000 141.500 40 995 180 21 328
1945228N17161 1945 45 WP MM GRACE 1945-08-22 15:00:00 NR 34.8443 140.477 main 45 0 ______________ WP121945 -1 TC 2 22 319
1945228N17161 1945 45 WP MM GRACE 1945-08-22 18:00:00 NR 35.3127 139.647 main 0 0 ______________ -1 2 16 307
1945228N17161 1945 45 WP MM GRACE 1945-08-22 21:00:00 NR 35.8000 138.900 main 0 0 ______________ -1 2 15 315
1945228N17161 1945 45 WP MM GRACE 1945-08-23 00:00:00 NR 36.3451 138.376 main 0 0 ______________ -1 14 326
1945228N17161 1945 45 WP MM GRACE 1945-08-23 03:00:00 NR 36.9230 137.968 main 0 0 ______________ -1 13 335
1945228N17161 1945 45 WP MM GRACE 1945-08-23 06:00:00 NR 37.5395 137.675 main 45 41 ______________ -1 13 344
1945228N17161 1945 45 WP MM GRACE 1945-08-23 09:00:00 NR 38.2000 137.500 main 92 92 ______________ -1 14 351
1945228N17161 1945 45 WP MM GRACE 1945-08-23 12:00:00 NR 38.8980 137.404 main 167 167 ______________ -1 14 358
1945228N17161 1945 45 WP MM GRACE 1945-08-23 15:00:00 NR 39.6392 137.425 main 198 187 ______________ -1 15 4
1945228N17161 1945 45 WP MM GRACE 1945-08-23 18:00:00 NR 40.4108 137.534 main 194 189 ______________ -1 16 8
1945228N17161 1945 45 WP MM GRACE 1945-08-23 21:00:00 NR 41.2000 137.700 main 192 162 ______________ -1 16 10
1945228N17161 1945 45 WP MM GRACE 1945-08-24 00:00:00 NR 41.9901 137.888 main 159 138 ______________ -1 16 11
1945228N17161 1945 45 WP MM GRACE 1945-08-24 03:00:00 NR 42.7931 138.123 main 140 134 ______________ -1 16 12
1945228N17161 1945 45 WP MM GRACE 1945-08-24 06:00:00 NR 43.5995 138.372 main 156 156 ______________ -1 16 12
1945228N17161 1945 45 WP MM GRACE 1945-08-24 09:00:00 NR 44.4000 138.600 main 161 115 ______________ -1 16 10
1945228N17161 1945 45 WP MM GRACE 1945-08-24 12:00:00 NR 45.1877 138.777 main 108 69 ______________ -1 16 8
1945228N17161 1945 45 WP MM GRACE 1945-08-24 15:00:00 NR 45.9645 138.909 main 65 43 ______________ -1 16 6
1945228N17161 1945 45 WP MM GRACE 1945-08-24 18:00:00 NR 46.7341 139.012 main 43 0 ______________ -1 15 5
1945228N17161 1945 45 WP MM GRACE 1945-08-24 21:00:00 NR 47.5000 139.100 main 0 ______________ -1 15 4

デジタル台風データ・検索

IBTrACS Databaseについて

本データベースは、米国NOAAが公開する1842年以降の世界の熱帯低気圧のベストトラックデータアーカイブInternational Best Track Archive for Climate Stewardship (IBTrACS)を、ウェブで閲覧しやすい形式に変換したものです。

最終更新日:2021-12-06